sensor_id;sensor_type;location;lat;lon;timestamp;temperature;humidity
7814;DHT22;3952;48.364;16.022;2022-09-27T00:01:23;11.50;99.90
7814;DHT22;3952;48.364;16.022;2022-09-27T00:03:52;11.50;99.90
7814;DHT22;3952;48.364;16.022;2022-09-27T00:06:23;11.50;99.90
7814;DHT22;3952;48.364;16.022;2022-09-27T00:08:51;11.50;99.90
7814;DHT22;3952;48.364;16.022;2022-09-27T00:11:26;11.40;99.90
7814;DHT22;3952;48.364;16.022;2022-09-27T00:13:57;11.30;99.90
7814;DHT22;3952;48.364;16.022;2022-09-27T00:16:26;11.30;99.90
7814;DHT22;3952;48.364;16.022;2022-09-27T00:18:58;11.20;99.90
7814;DHT22;3952;48.364;16.022;2022-09-27T00:21:26;11.20;99.90
7814;DHT22;3952;48.364;16.022;2022-09-27T00:23:55;11.20;99.90
7814;DHT22;3952;48.364;16.022;2022-09-27T00:26:24;11.10;99.90
7814;DHT22;3952;48.364;16.022;2022-09-27T00:28:52;11.10;99.90
7814;DHT22;3952;48.364;16.022;2022-09-27T00:31:22;11.10;99.90
7814;DHT22;3952;48.364;16.022;2022-09-27T00:33:51;11.90;99.90
7814;DHT22;3952;48.364;16.022;2022-09-27T00:36:21;11.00;99.90
7814;DHT22;3952;48.364;16.022;2022-09-27T00:38:48;11.00;99.90
7814;DHT22;3952;48.364;16.022;2022-09-27T00:41:17;11.00;99.90
7814;DHT22;3952;48.364;16.022;2022-09-27T00:43:48;11.00;99.90
7814;DHT22;3952;48.364;16.022;2022-09-27T00:46:24;11.00;99.90
7814;DHT22;3952;48.364;16.022;2022-09-27T00:49:00;11.00;99.90
7814;DHT22;3952;48.364;16.022;2022-09-27T00:51:29;11.00;99.90
7814;DHT22;3952;48.364;16.022;2022-09-27T00:53:57;11.00;99.90
7814;DHT22;3952;48.364;16.022;2022-09-27T00:56:28;10.90;99.90
7814;DHT22;3952;48.364;16.022;2022-09-27T00:58:59;10.90;99.90
7814;DHT22;3952;48.364;16.022;2022-09-27T01:01:29;11.00;99.90
7814;DHT22;3952;48.364;16.022;2022-09-27T01:03:59;11.00;99.90
7814;DHT22;3952;48.364;16.022;2022-09-27T01:06:27;11.00;99.90
7814;DHT22;3952;48.364;16.022;2022-09-27T01:08:55;11.00;99.90
7814;DHT22;3952;48.364;16.022;2022-09-27T01:11:34;11.00;99.90
7814;DHT22;3952;48.364;16.022;2022-09-27T01:14:31;11.00;99.90
7814;DHT22;3952;48.364;16.022;2022-09-27T01:17:12;11.00;99.90
7814;DHT22;3952;48.364;16.022;2022-09-27T01:22:58;11.00;99.90
7814;DHT22;3952;48.364;16.022;2022-09-27T01:25:48;11.00;99.90
7814;DHT22;3952;48.364;16.022;2022-09-27T01:28:21;11.00;99.90
7814;DHT22;3952;48.364;16.022;2022-09-27T01:30:56;11.00;99.90
7814;DHT22;3952;48.364;16.022;2022-09-27T01:33:42;11.00;99.90
7814;DHT22;3952;48.364;16.022;2022-09-27T01:36:19;10.90;99.90
7814;DHT22;3952;48.364;16.022;2022-09-27T01:39:02;10.90;99.90
7814;DHT22;3952;48.364;16.022;2022-09-27T01:41:40;10.90;99.90
7814;DHT22;3952;48.364;16.022;2022-09-27T01:44:19;10.90;99.90
7814;DHT22;3952;48.364;16.022;2022-09-27T01:46:52;10.90;99.90
7814;DHT22;3952;48.364;16.022;2022-09-27T01:49:28;10.90;99.90
7814;DHT22;3952;48.364;16.022;2022-09-27T01:52:00;10.90;99.90
7814;DHT22;3952;48.364;16.022;2022-09-27T01:54:34;10.90;99.90
7814;DHT22;3952;48.364;16.022;2022-09-27T01:57:04;10.90;99.90
7814;DHT22;3952;48.364;16.022;2022-09-27T01:59:36;10.90;99.90
7814;DHT22;3952;48.364;16.022;2022-09-27T02:02:07;10.90;99.90
7814;DHT22;3952;48.364;16.022;2022-09-27T02:04:39;10.90;99.90
7814;DHT22;3952;48.364;16.022;2022-09-27T02:07:10;10.90;99.90
7814;DHT22;3952;48.364;16.022;2022-09-27T02:09:41;10.90;99.90
7814;DHT22;3952;48.364;16.022;2022-09-27T02:12:14;11.50;99.90
7814;DHT22;3952;48.364;16.022;2022-09-27T02:14:45;10.90;99.90
7814;DHT22;3952;48.364;16.022;2022-09-27T02:17:22;10.80;99.90
7814;DHT22;3952;48.364;16.022;2022-09-27T02:19:58;10.80;99.90
7814;DHT22;3952;48.364;16.022;2022-09-27T02:22:33;10.80;99.90
7814;DHT22;3952;48.364;16.022;2022-09-27T02:25:07;10.80;99.90
7814;DHT22;3952;48.364;16.022;2022-09-27T02:27:43;10.80;99.90
7814;DHT22;3952;48.364;16.022;2022-09-27T02:30:14;10.80;99.90
7814;DHT22;3952;48.364;16.022;2022-09-27T02:32:44;10.70;99.90
7814;DHT22;3952;48.364;16.022;2022-09-27T02:35:14;10.70;99.90
7814;DHT22;3952;48.364;16.022;2022-09-27T02:37:43;10.70;99.90
7814;DHT22;3952;48.364;16.022;2022-09-27T02:40:10;10.80;99.90
7814;DHT22;3952;48.364;16.022;2022-09-27T02:42:39;10.80;99.90
7814;DHT22;3952;48.364;16.022;2022-09-27T02:45:10;10.80;99.90
7814;DHT22;3952;48.364;16.022;2022-09-27T02:47:59;10.80;99.90
7814;DHT22;3952;48.364;16.022;2022-09-27T02:50:49;10.80;99.90
7814;DHT22;3952;48.364;16.022;2022-09-27T02:53:30;10.70;99.90
7814;DHT22;3952;48.364;16.022;2022-09-27T02:56:04;10.70;99.90
7814;DHT22;3952;48.364;16.022;2022-09-27T02:58:43;10.90;99.90
7814;DHT22;3952;48.364;16.022;2022-09-27T03:01:17;10.60;99.90
7814;DHT22;3952;48.364;16.022;2022-09-27T03:03:52;10.60;99.90
7814;DHT22;3952;48.364;16.022;2022-09-27T03:06:22;10.60;99.90
7814;DHT22;3952;48.364;16.022;2022-09-27T03:08:50;10.50;99.90
7814;DHT22;3952;48.364;16.022;2022-09-27T03:11:17;10.60;99.90
7814;DHT22;3952;48.364;16.022;2022-09-27T03:13:45;10.50;99.90
7814;DHT22;3952;48.364;16.022;2022-09-27T03:16:12;10.50;99.90
7814;DHT22;3952;48.364;16.022;2022-09-27T03:18:41;10.60;99.90
7814;DHT22;3952;48.364;16.022;2022-09-27T03:21:09;10.60;99.90
7814;DHT22;3952;48.364;16.022;2022-09-27T03:23:37;10.60;99.90
7814;DHT22;3952;48.364;16.022;2022-09-27T03:26:04;10.60;99.90
7814;DHT22;3952;48.364;16.022;2022-09-27T03:28:31;10.60;99.90
7814;DHT22;3952;48.364;16.022;2022-09-27T03:31:00;10.60;99.90
7814;DHT22;3952;48.364;16.022;2022-09-27T03:33:27;10.60;99.90
7814;DHT22;3952;48.364;16.022;2022-09-27T03:35:55;10.60;99.90
7814;DHT22;3952;48.364;16.022;2022-09-27T03:38:23;10.70;99.90
7814;DHT22;3952;48.364;16.022;2022-09-27T03:40:50;10.70;99.90
7814;DHT22;3952;48.364;16.022;2022-09-27T03:43:18;10.60;99.90
7814;DHT22;3952;48.364;16.022;2022-09-27T03:45:45;10.60;99.90
7814;DHT22;3952;48.364;16.022;2022-09-27T03:48:12;10.60;99.90
7814;DHT22;3952;48.364;16.022;2022-09-27T03:50:40;10.60;99.90
7814;DHT22;3952;48.364;16.022;2022-09-27T03:53:07;10.60;99.90
7814;DHT22;3952;48.364;16.022;2022-09-27T03:55:36;10.50;99.90
7814;DHT22;3952;48.364;16.022;2022-09-27T03:58:03;10.50;99.90
7814;DHT22;3952;48.364;16.022;2022-09-27T04:00:31;10.50;99.90
7814;DHT22;3952;48.364;16.022;2022-09-27T04:02:58;10.50;99.90
7814;DHT22;3952;48.364;16.022;2022-09-27T04:05:26;10.50;99.90
7814;DHT22;3952;48.364;16.022;2022-09-27T04:07:54;10.60;99.90
7814;DHT22;3952;48.364;16.022;2022-09-27T04:10:22;10.60;99.90
7814;DHT22;3952;48.364;16.022;2022-09-27T04:12:51;10.60;99.90
7814;DHT22;3952;48.364;16.022;2022-09-27T04:15:18;10.60;99.90
7814;DHT22;3952;48.364;16.022;2022-09-27T04:17:45;10.60;99.90
7814;DHT22;3952;48.364;16.022;2022-09-27T04:20:13;10.60;99.90
7814;DHT22;3952;48.364;16.022;2022-09-27T04:22:40;10.60;99.90
7814;DHT22;3952;48.364;16.022;2022-09-27T04:25:10;10.60;99.90
7814;DHT22;3952;48.364;16.022;2022-09-27T04:27:43;10.70;99.90
7814;DHT22;3952;48.364;16.022;2022-09-27T04:30:13;10.70;99.90
7814;DHT22;3952;48.364;16.022;2022-09-27T04:32:41;10.70;99.90
7814;DHT22;3952;48.364;16.022;2022-09-27T04:35:08;10.80;99.90
7814;DHT22;3952;48.364;16.022;2022-09-27T04:37:53;10.80;99.90
7814;DHT22;3952;48.364;16.022;2022-09-27T04:40:21;10.80;99.90
7814;DHT22;3952;48.364;16.022;2022-09-27T04:42:48;10.80;99.90
7814;DHT22;3952;48.364;16.022;2022-09-27T04:45:17;10.70;99.90
7814;DHT22;3952;48.364;16.022;2022-09-27T04:47:47;10.70;99.90
7814;DHT22;3952;48.364;16.022;2022-09-27T04:50:16;10.70;99.90
7814;DHT22;3952;48.364;16.022;2022-09-27T04:52:49;10.70;99.90
7814;DHT22;3952;48.364;16.022;2022-09-27T04:55:19;10.80;99.90
7814;DHT22;3952;48.364;16.022;2022-09-27T04:57:46;10.70;99.90
7814;DHT22;3952;48.364;16.022;2022-09-27T05:00:15;10.80;99.90
7814;DHT22;3952;48.364;16.022;2022-09-27T05:02:44;10.80;99.90
7814;DHT22;3952;48.364;16.022;2022-09-27T05:05:13;10.80;99.90
7814;DHT22;3952;48.364;16.022;2022-09-27T05:07:40;10.80;99.90
7814;DHT22;3952;48.364;16.022;2022-09-27T05:10:09;10.80;99.90
7814;DHT22;3952;48.364;16.022;2022-09-27T05:12:36;10.80;99.90
7814;DHT22;3952;48.364;16.022;2022-09-27T05:15:05;10.80;99.90
7814;DHT22;3952;48.364;16.022;2022-09-27T05:17:32;10.80;99.90
7814;DHT22;3952;48.364;16.022;2022-09-27T05:20:01;10.80;99.90
7814;DHT22;3952;48.364;16.022;2022-09-27T05:22:28;10.90;99.90
7814;DHT22;3952;48.364;16.022;2022-09-27T05:24:56;10.90;99.90
7814;DHT22;3952;48.364;16.022;2022-09-27T05:27:23;10.90;99.90
7814;DHT22;3952;48.364;16.022;2022-09-27T05:29:50;10.90;99.90
7814;DHT22;3952;48.364;16.022;2022-09-27T05:32:19;11.00;99.90
7814;DHT22;3952;48.364;16.022;2022-09-27T05:34:46;11.00;99.90
7814;DHT22;3952;48.364;16.022;2022-09-27T05:37:15;11.00;99.90
7814;DHT22;3952;48.364;16.022;2022-09-27T05:39:43;11.10;99.90
7814;DHT22;3952;48.364;16.022;2022-09-27T05:42:11;11.10;99.90
7814;DHT22;3952;48.364;16.022;2022-09-27T05:44:40;11.10;99.90
7814;DHT22;3952;48.364;16.022;2022-09-27T05:47:11;11.10;99.90
7814;DHT22;3952;48.364;16.022;2022-09-27T05:49:40;11.20;99.90
7814;DHT22;3952;48.364;16.022;2022-09-27T05:52:07;11.20;99.90
7814;DHT22;3952;48.364;16.022;2022-09-27T05:54:36;11.20;99.90
7814;DHT22;3952;48.364;16.022;2022-09-27T05:57:04;11.20;99.90
7814;DHT22;3952;48.364;16.022;2022-09-27T05:59:32;11.30;99.90
7814;DHT22;3952;48.364;16.022;2022-09-27T06:02:00;11.30;99.90
7814;DHT22;3952;48.364;16.022;2022-09-27T06:04:27;11.30;99.90
7814;DHT22;3952;48.364;16.022;2022-09-27T06:06:55;11.30;99.90
7814;DHT22;3952;48.364;16.022;2022-09-27T06:09:23;11.30;99.90
7814;DHT22;3952;48.364;16.022;2022-09-27T06:11:54;11.40;99.90
7814;DHT22;3952;48.364;16.022;2022-09-27T06:14:21;11.40;99.90
7814;DHT22;3952;48.364;16.022;2022-09-27T06:16:49;11.90;99.90
7814;DHT22;3952;48.364;16.022;2022-09-27T06:19:16;11.40;99.90
7814;DHT22;3952;48.364;16.022;2022-09-27T06:21:43;11.40;99.90
7814;DHT22;3952;48.364;16.022;2022-09-27T06:24:13;11.50;99.90
7814;DHT22;3952;48.364;16.022;2022-09-27T06:26:41;11.50;99.90
7814;DHT22;3952;48.364;16.022;2022-09-27T06:29:09;11.60;99.90
7814;DHT22;3952;48.364;16.022;2022-09-27T06:31:37;11.70;99.90
7814;DHT22;3952;48.364;16.022;2022-09-27T06:34:04;11.70;99.90
7814;DHT22;3952;48.364;16.022;2022-09-27T06:36:33;11.70;99.90
7814;DHT22;3952;48.364;16.022;2022-09-27T06:39:00;11.80;99.90
7814;DHT22;3952;48.364;16.022;2022-09-27T06:41:28;11.80;99.90
7814;DHT22;3952;48.364;16.022;2022-09-27T06:43:55;11.90;99.90
7814;DHT22;3952;48.364;16.022;2022-09-27T06:46:23;11.90;99.90
7814;DHT22;3952;48.364;16.022;2022-09-27T06:48:51;12.00;99.90
7814;DHT22;3952;48.364;16.022;2022-09-27T06:51:18;12.00;99.90
7814;DHT22;3952;48.364;16.022;2022-09-27T06:53:46;12.00;99.90
7814;DHT22;3952;48.364;16.022;2022-09-27T06:56:13;12.00;99.90
7814;DHT22;3952;48.364;16.022;2022-09-27T06:58:40;12.00;99.90
7814;DHT22;3952;48.364;16.022;2022-09-27T07:01:28;12.10;99.90
7814;DHT22;3952;48.364;16.022;2022-09-27T07:03:55;12.10;99.90
7814;DHT22;3952;48.364;16.022;2022-09-27T07:06:24;12.10;99.90
7814;DHT22;3952;48.364;16.022;2022-09-27T07:08:52;12.10;99.90
7814;DHT22;3952;48.364;16.022;2022-09-27T07:11:20;12.20;99.90
7814;DHT22;3952;48.364;16.022;2022-09-27T07:13:48;12.20;99.90
7814;DHT22;3952;48.364;16.022;2022-09-27T07:16:16;12.20;99.90
7814;DHT22;3952;48.364;16.022;2022-09-27T07:18:47;12.20;99.90
7814;DHT22;3952;48.364;16.022;2022-09-27T07:21:14;12.20;99.90
7814;DHT22;3952;48.364;16.022;2022-09-27T07:23:42;12.20;99.90
7814;DHT22;3952;48.364;16.022;2022-09-27T07:26:09;12.20;99.90
7814;DHT22;3952;48.364;16.022;2022-09-27T07:28:37;12.20;99.90
7814;DHT22;3952;48.364;16.022;2022-09-27T07:31:06;12.20;99.90
7814;DHT22;3952;48.364;16.022;2022-09-27T07:33:34;12.20;99.90
7814;DHT22;3952;48.364;16.022;2022-09-27T07:36:09;12.20;99.90
7814;DHT22;3952;48.364;16.022;2022-09-27T07:38:36;12.20;99.90
7814;DHT22;3952;48.364;16.022;2022-09-27T07:41:08;12.20;99.90
7814;DHT22;3952;48.364;16.022;2022-09-27T07:43:35;12.20;99.90
7814;DHT22;3952;48.364;16.022;2022-09-27T07:46:03;12.20;99.90
7814;DHT22;3952;48.364;16.022;2022-09-27T07:48:30;12.20;99.90
7814;DHT22;3952;48.364;16.022;2022-09-27T07:50:57;12.20;99.90
7814;DHT22;3952;48.364;16.022;2022-09-27T07:53:26;12.10;99.90
7814;DHT22;3952;48.364;16.022;2022-09-27T07:55:53;12.10;99.90
7814;DHT22;3952;48.364;16.022;2022-09-27T07:58:21;12.10;99.90
7814;DHT22;3952;48.364;16.022;2022-09-27T08:00:49;12.10;99.90
7814;DHT22;3952;48.364;16.022;2022-09-27T08:03:17;12.10;99.90
7814;DHT22;3952;48.364;16.022;2022-09-27T08:05:45;12.10;99.90
7814;DHT22;3952;48.364;16.022;2022-09-27T08:08:13;12.10;99.90
7814;DHT22;3952;48.364;16.022;2022-09-27T08:10:42;12.20;99.90
7814;DHT22;3952;48.364;16.022;2022-09-27T08:13:11;12.20;99.90
7814;DHT22;3952;48.364;16.022;2022-09-27T08:15:39;12.20;99.90
7814;DHT22;3952;48.364;16.022;2022-09-27T08:18:07;12.30;99.90
7814;DHT22;3952;48.364;16.022;2022-09-27T08:20:34;12.40;99.90
7814;DHT22;3952;48.364;16.022;2022-09-27T08:23:01;12.40;99.90
7814;DHT22;3952;48.364;16.022;2022-09-27T08:25:29;12.50;99.90
7814;DHT22;3952;48.364;16.022;2022-09-27T08:27:59;12.50;99.90
7814;DHT22;3952;48.364;16.022;2022-09-27T08:30:27;12.40;99.90
7814;DHT22;3952;48.364;16.022;2022-09-27T08:32:58;12.50;99.90
7814;DHT22;3952;48.364;16.022;2022-09-27T08:35:26;12.50;99.90
7814;DHT22;3952;48.364;16.022;2022-09-27T08:37:55;12.60;99.90
7814;DHT22;3952;48.364;16.022;2022-09-27T08:40:30;12.60;99.90
7814;DHT22;3952;48.364;16.022;2022-09-27T08:43:05;12.70;99.90
7814;DHT22;3952;48.364;16.022;2022-09-27T08:45:41;12.70;99.90
7814;DHT22;3952;48.364;16.022;2022-09-27T08:48:17;12.80;99.90
7814;DHT22;3952;48.364;16.022;2022-09-27T08:50:46;12.80;99.90
7814;DHT22;3952;48.364;16.022;2022-09-27T08:53:19;12.80;99.90
7814;DHT22;3952;48.364;16.022;2022-09-27T08:55:49;12.80;99.90
7814;DHT22;3952;48.364;16.022;2022-09-27T08:58:25;12.90;99.90
7814;DHT22;3952;48.364;16.022;2022-09-27T09:00:54;12.90;99.90
7814;DHT22;3952;48.364;16.022;2022-09-27T09:03:26;12.90;99.90
7814;DHT22;3952;48.364;16.022;2022-09-27T09:06:07;12.90;99.90
7814;DHT22;3952;48.364;16.022;2022-09-27T09:08:45;13.00;99.90
7814;DHT22;3952;48.364;16.022;2022-09-27T09:11:24;13.00;99.90
7814;DHT22;3952;48.364;16.022;2022-09-27T09:14:44;13.00;99.90
7814;DHT22;3952;48.364;16.022;2022-09-27T09:17:20;13.00;99.90
7814;DHT22;3952;48.364;16.022;2022-09-27T09:20:02;13.10;99.90
7814;DHT22;3952;48.364;16.022;2022-09-27T09:25:38;13.20;99.90
7814;DHT22;3952;48.364;16.022;2022-09-27T09:28:17;13.30;99.90
7814;DHT22;3952;48.364;16.022;2022-09-27T09:30:58;13.40;99.90
7814;DHT22;3952;48.364;16.022;2022-09-27T09:33:30;13.40;99.90
7814;DHT22;3952;48.364;16.022;2022-09-27T09:36:04;13.50;99.90
7814;DHT22;3952;48.364;16.022;2022-09-27T09:38:37;13.50;99.90
7814;DHT22;3952;48.364;16.022;2022-09-27T09:41:10;13.60;99.90
7814;DHT22;3952;48.364;16.022;2022-09-27T09:43:45;13.70;99.90
7814;DHT22;3952;48.364;16.022;2022-09-27T09:46:18;13.70;99.90
7814;DHT22;3952;48.364;16.022;2022-09-27T09:48:49;13.80;99.90
7814;DHT22;3952;48.364;16.022;2022-09-27T09:51:20;13.90;99.90
7814;DHT22;3952;48.364;16.022;2022-09-27T09:53:53;13.90;99.90
7814;DHT22;3952;48.364;16.022;2022-09-27T09:56:25;14.00;99.90
7814;DHT22;3952;48.364;16.022;2022-09-27T09:58:56;14.10;99.90
7814;DHT22;3952;48.364;16.022;2022-09-27T10:01:27;14.20;99.90
7814;DHT22;3952;48.364;16.022;2022-09-27T10:03:56;14.20;99.90
7814;DHT22;3952;48.364;16.022;2022-09-27T10:06:24;14.30;99.90
7814;DHT22;3952;48.364;16.022;2022-09-27T10:08:53;14.30;99.90
7814;DHT22;3952;48.364;16.022;2022-09-27T10:11:23;14.30;99.90
7814;DHT22;3952;48.364;16.022;2022-09-27T10:13:52;14.40;99.90
7814;DHT22;3952;48.364;16.022;2022-09-27T10:16:21;14.50;99.90
7814;DHT22;3952;48.364;16.022;2022-09-27T10:18:56;14.60;99.90
7814;DHT22;3952;48.364;16.022;2022-09-27T10:21:29;14.60;99.90
7814;DHT22;3952;48.364;16.022;2022-09-27T10:24:05;14.60;99.90
7814;DHT22;3952;48.364;16.022;2022-09-27T10:26:34;14.60;99.90
7814;DHT22;3952;48.364;16.022;2022-09-27T10:29:32;14.80;99.90
7814;DHT22;3952;48.364;16.022;2022-09-27T10:32:02;14.60;99.90
7814;DHT22;3952;48.364;16.022;2022-09-27T10:34:32;14.60;99.90
7814;DHT22;3952;48.364;16.022;2022-09-27T10:37:06;14.70;99.90
7814;DHT22;3952;48.364;16.022;2022-09-27T10:39:42;14.70;99.90
7814;DHT22;3952;48.364;16.022;2022-09-27T10:42:20;14.70;99.90
7814;DHT22;3952;48.364;16.022;2022-09-27T10:44:48;14.70;99.90
7814;DHT22;3952;48.364;16.022;2022-09-27T10:47:19;14.70;99.90
7814;DHT22;3952;48.364;16.022;2022-09-27T10:49:50;14.70;99.90
7814;DHT22;3952;48.364;16.022;2022-09-27T10:52:19;14.80;99.90
7814;DHT22;3952;48.364;16.022;2022-09-27T10:54:57;14.80;99.90
7814;DHT22;3952;48.364;16.022;2022-09-27T10:57:27;14.90;99.90
7814;DHT22;3952;48.364;16.022;2022-09-27T10:59:56;14.90;99.90
7814;DHT22;3952;48.364;16.022;2022-09-27T11:02:28;14.90;99.90
7814;DHT22;3952;48.364;16.022;2022-09-27T11:05:09;14.80;99.90
7814;DHT22;3952;48.364;16.022;2022-09-27T11:07:47;14.90;99.90
7814;DHT22;3952;48.364;16.022;2022-09-27T11:10:23;14.90;99.90
7814;DHT22;3952;48.364;16.022;2022-09-27T11:13:14;14.90;99.90
7814;DHT22;3952;48.364;16.022;2022-09-27T11:15:52;15.00;99.90
7814;DHT22;3952;48.364;16.022;2022-09-27T11:18:29;15.00;99.90
7814;DHT22;3952;48.364;16.022;2022-09-27T11:21:10;15.00;99.90
7814;DHT22;3952;48.364;16.022;2022-09-27T11:23:50;15.00;99.90
7814;DHT22;3952;48.364;16.022;2022-09-27T11:26:29;15.00;99.90
7814;DHT22;3952;48.364;16.022;2022-09-27T11:29:10;15.00;99.90
7814;DHT22;3952;48.364;16.022;2022-09-27T11:31:45;15.00;99.90
7814;DHT22;3952;48.364;16.022;2022-09-27T11:34:28;15.10;99.90
7814;DHT22;3952;48.364;16.022;2022-09-27T11:37:09;15.20;99.90
7814;DHT22;3952;48.364;16.022;2022-09-27T11:39:55;15.30;99.90
7814;DHT22;3952;48.364;16.022;2022-09-27T11:43:03;15.40;99.90
7814;DHT22;3952;48.364;16.022;2022-09-27T11:45:45;15.40;99.90
7814;DHT22;3952;48.364;16.022;2022-09-27T11:48:28;15.50;99.90
7814;DHT22;3952;48.364;16.022;2022-09-27T11:51:13;15.60;99.90
7814;DHT22;3952;48.364;16.022;2022-09-27T11:54:03;15.60;99.90
7814;DHT22;3952;48.364;16.022;2022-09-27T11:56:40;15.60;99.90
7814;DHT22;3952;48.364;16.022;2022-09-27T11:59:36;15.50;99.90
7814;DHT22;3952;48.364;16.022;2022-09-27T12:02:22;15.60;99.90
7814;DHT22;3952;48.364;16.022;2022-09-27T12:05:04;15.50;99.90
7814;DHT22;3952;48.364;16.022;2022-09-27T12:07:42;15.50;99.90
7814;DHT22;3952;48.364;16.022;2022-09-27T12:10:15;15.40;99.90
7814;DHT22;3952;48.364;16.022;2022-09-27T12:12:45;15.40;99.90
7814;DHT22;3952;48.364;16.022;2022-09-27T12:15:17;15.40;99.90
7814;DHT22;3952;48.364;16.022;2022-09-27T12:17:47;15.30;99.90
7814;DHT22;3952;48.364;16.022;2022-09-27T12:20:20;15.30;99.90
7814;DHT22;3952;48.364;16.022;2022-09-27T12:22:53;15.30;99.90
7814;DHT22;3952;48.364;16.022;2022-09-27T12:25:25;15.30;99.90
7814;DHT22;3952;48.364;16.022;2022-09-27T12:28:02;15.20;99.90
7814;DHT22;3952;48.364;16.022;2022-09-27T12:30:33;15.20;99.90
7814;DHT22;3952;48.364;16.022;2022-09-27T12:33:07;15.20;99.90
7814;DHT22;3952;48.364;16.022;2022-09-27T12:35:41;15.20;99.90
7814;DHT22;3952;48.364;16.022;2022-09-27T12:38:12;15.20;99.90
7814;DHT22;3952;48.364;16.022;2022-09-27T12:40:44;15.20;99.90
7814;DHT22;3952;48.364;16.022;2022-09-27T12:43:17;15.20;99.90
7814;DHT22;3952;48.364;16.022;2022-09-27T12:45:52;15.10;99.90
7814;DHT22;3952;48.364;16.022;2022-09-27T12:48:30;15.10;99.90
7814;DHT22;3952;48.364;16.022;2022-09-27T12:51:05;15.10;99.90
7814;DHT22;3952;48.364;16.022;2022-09-27T12:53:44;15.10;99.90
7814;DHT22;3952;48.364;16.022;2022-09-27T12:59:39;15.10;99.90
7814;DHT22;3952;48.364;16.022;2022-09-27T13:02:25;15.20;99.90
7814;DHT22;3952;48.364;16.022;2022-09-27T13:05:25;15.20;99.90
7814;DHT22;3952;48.364;16.022;2022-09-27T13:08:12;15.20;99.90
7814;DHT22;3952;48.364;16.022;2022-09-27T13:10:52;15.20;99.90
7814;DHT22;3952;48.364;16.022;2022-09-27T13:13:24;15.20;99.90
7814;DHT22;3952;48.364;16.022;2022-09-27T13:15:57;15.20;99.90
7814;DHT22;3952;48.364;16.022;2022-09-27T13:18:31;15.20;99.90
7814;DHT22;3952;48.364;16.022;2022-09-27T13:21:53;15.20;99.90
7814;DHT22;3952;48.364;16.022;2022-09-27T13:24:41;15.20;99.90
7814;DHT22;3952;48.364;16.022;2022-09-27T13:27:45;15.20;99.90
7814;DHT22;3952;48.364;16.022;2022-09-27T13:30:43;15.30;99.90
7814;DHT22;3952;48.364;16.022;2022-09-27T13:33:27;15.30;99.90
7814;DHT22;3952;48.364;16.022;2022-09-27T13:36:15;15.30;99.90
7814;DHT22;3952;48.364;16.022;2022-09-27T13:38:52;15.20;99.90
7814;DHT22;3952;48.364;16.022;2022-09-27T13:41:30;15.20;99.90
7814;DHT22;3952;48.364;16.022;2022-09-27T13:44:05;15.10;99.90
7814;DHT22;3952;48.364;16.022;2022-09-27T13:46:46;15.10;99.90
7814;DHT22;3952;48.364;16.022;2022-09-27T13:49:19;15.20;99.90
7814;DHT22;3952;48.364;16.022;2022-09-27T13:51:50;15.20;99.90
7814;DHT22;3952;48.364;16.022;2022-09-27T13:54:39;15.20;99.90
7814;DHT22;3952;48.364;16.022;2022-09-27T13:57:40;15.20;99.90
7814;DHT22;3952;48.364;16.022;2022-09-27T14:00:12;15.20;99.90
7814;DHT22;3952;48.364;16.022;2022-09-27T14:02:57;15.20;99.90
7814;DHT22;3952;48.364;16.022;2022-09-27T14:05:29;15.10;99.90
7814;DHT22;3952;48.364;16.022;2022-09-27T14:07:59;15.10;99.90
7814;DHT22;3952;48.364;16.022;2022-09-27T14:10:29;15.10;99.90
7814;DHT22;3952;48.364;16.022;2022-09-27T14:12:59;15.10;99.90
7814;DHT22;3952;48.364;16.022;2022-09-27T14:15:30;15.10;99.90
7814;DHT22;3952;48.364;16.022;2022-09-27T14:17:59;15.00;99.90
7814;DHT22;3952;48.364;16.022;2022-09-27T14:20:37;15.00;99.90
7814;DHT22;3952;48.364;16.022;2022-09-27T14:23:14;15.10;99.90
7814;DHT22;3952;48.364;16.022;2022-09-27T14:25:46;15.00;99.90
7814;DHT22;3952;48.364;16.022;2022-09-27T14:28:22;15.20;99.90
7814;DHT22;3952;48.364;16.022;2022-09-27T14:31:04;15.00;99.90
7814;DHT22;3952;48.364;16.022;2022-09-27T14:33:34;14.90;99.90
7814;DHT22;3952;48.364;16.022;2022-09-27T14:36:02;14.80;99.90
7814;DHT22;3952;48.364;16.022;2022-09-27T14:38:50;14.80;99.90
7814;DHT22;3952;48.364;16.022;2022-09-27T14:41:18;14.80;99.90
7814;DHT22;3952;48.364;16.022;2022-09-27T14:43:45;14.70;99.90
7814;DHT22;3952;48.364;16.022;2022-09-27T14:46:25;14.70;99.90
7814;DHT22;3952;48.364;16.022;2022-09-27T14:48:54;14.60;99.90
7814;DHT22;3952;48.364;16.022;2022-09-27T14:51:27;14.60;99.90
7814;DHT22;3952;48.364;16.022;2022-09-27T14:53:57;14.50;99.90
7814;DHT22;3952;48.364;16.022;2022-09-27T14:56:27;14.50;99.90
7814;DHT22;3952;48.364;16.022;2022-09-27T14:59:00;14.50;99.90
7814;DHT22;3952;48.364;16.022;2022-09-27T15:01:29;14.50;99.90
7814;DHT22;3952;48.364;16.022;2022-09-27T15:04:03;14.50;99.90
7814;DHT22;3952;48.364;16.022;2022-09-27T15:06:30;14.50;99.90
7814;DHT22;3952;48.364;16.022;2022-09-27T15:08:59;14.40;99.90
7814;DHT22;3952;48.364;16.022;2022-09-27T15:11:26;14.40;99.90
7814;DHT22;3952;48.364;16.022;2022-09-27T15:13:54;14.40;99.90
7814;DHT22;3952;48.364;16.022;2022-09-27T15:16:23;14.30;99.90
7814;DHT22;3952;48.364;16.022;2022-09-27T15:19:01;14.30;99.90
7814;DHT22;3952;48.364;16.022;2022-09-27T15:21:30;14.20;99.90
7814;DHT22;3952;48.364;16.022;2022-09-27T15:23:58;14.20;99.90
7814;DHT22;3952;48.364;16.022;2022-09-27T15:26:36;14.20;99.90
7814;DHT22;3952;48.364;16.022;2022-09-27T15:29:04;14.20;99.90
7814;DHT22;3952;48.364;16.022;2022-09-27T15:31:32;14.20;99.90
7814;DHT22;3952;48.364;16.022;2022-09-27T15:34:03;14.20;99.90
7814;DHT22;3952;48.364;16.022;2022-09-27T15:36:52;14.20;99.90
7814;DHT22;3952;48.364;16.022;2022-09-27T15:39:26;14.20;99.90
7814;DHT22;3952;48.364;16.022;2022-09-27T15:42:06;14.20;99.90
7814;DHT22;3952;48.364;16.022;2022-09-27T15:44:44;14.10;99.90
7814;DHT22;3952;48.364;16.022;2022-09-27T15:47:38;14.10;99.90
7814;DHT22;3952;48.364;16.022;2022-09-27T15:50:33;14.10;99.90
7814;DHT22;3952;48.364;16.022;2022-09-27T15:53:01;14.10;99.90
7814;DHT22;3952;48.364;16.022;2022-09-27T15:55:32;14.10;99.90
7814;DHT22;3952;48.364;16.022;2022-09-27T15:58:02;14.00;99.90
7814;DHT22;3952;48.364;16.022;2022-09-27T16:00:29;14.00;99.90
7814;DHT22;3952;48.364;16.022;2022-09-27T16:02:57;14.00;99.90
7814;DHT22;3952;48.364;16.022;2022-09-27T16:05:24;14.00;99.90
7814;DHT22;3952;48.364;16.022;2022-09-27T16:07:56;13.90;99.90
7814;DHT22;3952;48.364;16.022;2022-09-27T16:10:28;13.90;99.90
7814;DHT22;3952;48.364;16.022;2022-09-27T16:12:56;13.80;99.90
7814;DHT22;3952;48.364;16.022;2022-09-27T16:15:23;13.80;99.90
7814;DHT22;3952;48.364;16.022;2022-09-27T16:17:51;13.80;99.90
7814;DHT22;3952;48.364;16.022;2022-09-27T16:20:21;13.80;99.90
7814;DHT22;3952;48.364;16.022;2022-09-27T16:22:50;13.80;99.90
7814;DHT22;3952;48.364;16.022;2022-09-27T16:25:19;13.80;99.90
7814;DHT22;3952;48.364;16.022;2022-09-27T16:27:47;13.70;99.90
7814;DHT22;3952;48.364;16.022;2022-09-27T16:30:16;13.70;99.90